ID Time Temp Humidity Light PM2.5 PM10 Voltage Extra Firmware Position Fcnt TTN version Gateways Distance RSSI LSNR Radiosettings
2026-05-07 17:16:01 17.125°C 82.75% 2 μg/m³ 3 μg/m³ 3.27V v255 No position 37087 ttn.v3 - -124 -9 867.7MHz, SF9BW125, 4/5CR
- -107 -10 867.7MHz, SF9BW125, 4/5CR
2026-05-07 15:41:07 17.0625°C 81.125% 2 μg/m³ 2 μg/m³ 3.27V v255 No position 37081 ttn.v3 - -108 -10 867.1MHz, SF9BW125, 4/5CR
- -124 -13.5 867.1MHz, SF9BW125, 4/5CR
- -131 -14.5 867.1MHz, SF9BW125, 4/5CR
2026-05-07 15:09:29 17.1875°C 85.125% 2 μg/m³ 2 μg/m³ 3.27V v255 No position 37079 ttn.v3 - -124 -8 867.9MHz, SF9BW125, 4/5CR
- -122 -8 867.9MHz, SF9BW125, 4/5CR
- -125 -11.2 867.9MHz, SF9BW125, 4/5CR
2026-05-07 14:53:40 17.375°C 86.1875% 1 μg/m³ 2 μg/m³ 3.27V v255 No position 37078 ttn.v3 - -124 -9.5 868.1MHz, SF9BW125, 4/5CR
- -117 -14.25 868.1MHz, SF9BW125, 4/5CR
2026-05-07 14:37:50 17.3125°C 84.375% 2 μg/m³ 3 μg/m³ 3.27V v255 No position 37077 ttn.v3 - -121 -6.25 867.7MHz, SF9BW125, 4/5CR
- -124 -12.2 867.7MHz, SF9BW125, 4/5CR
2026-05-07 14:06:12 16.9375°C 83.3125% 1 μg/m³ 2 μg/m³ 3.27V v255 No position 37075 ttn.v3 - -118 -13.8 867.5MHz, SF9BW125, 4/5CR
2026-05-07 13:18:43 21.25°C 75.125% 1 μg/m³ 1 μg/m³ 3.27V v255 No position 37072 ttn.v3 - -124 -11.5 868.1MHz, SF9BW125, 4/5CR
2026-05-07 13:02:53 20.875°C 75.25% 6 μg/m³ 11 μg/m³ 3.27V v255 No position 37071 ttn.v3 - -122 -5 867.1MHz, SF9BW125, 4/5CR
2026-05-07 12:31:13 20.5625°C 80.1875% 2 μg/m³ 3 μg/m³ 3.27V v255 No position 37069 ttn.v3 - -121 -6.5 867.9MHz, SF9BW125, 4/5CR
2026-05-07 11:59:33 20.625°C 82.875% 4 μg/m³ 4 μg/m³ 3.27V v255 No position 37067 ttn.v3 - -124 -8.25 867.7MHz, SF9BW125, 4/5CR
2026-05-07 11:43:44 20.5°C 82% 4 μg/m³ 6 μg/m³ 3.27V v255 No position 37066 ttn.v3 - -117 -9.75 868.1MHz, SF9BW125, 4/5CR
2026-05-07 11:12:04 19.75°C 88.875% 1 μg/m³ 2 μg/m³ 3.27V v255 No position 37064 ttn.v3 - -114 -12.75 868.5MHz, SF9BW125, 4/5CR
2026-05-07 10:56:15 18.9375°C 91% 1 μg/m³ 2 μg/m³ 3.27V v255 No position 37063 ttn.v3 - -125 -9.25 867.3MHz, SF9BW125, 4/5CR
- -113 -13.25 867.3MHz, SF9BW125, 4/5CR
- -124 -14.5 867.3MHz, SF9BW125, 4/5CR
2026-05-07 10:24:36 17.375°C 112.5% 1 μg/m³ 1 μg/m³ 3.27V v255 No position 37061 ttn.v3 - -121 -6.5 867.1MHz, SF9BW125, 4/5CR
- -125 -8.25 867.1MHz, SF9BW125, 4/5CR
- -110 -9.5 867.1MHz, SF9BW125, 4/5CR
- -124 -10.5 867.1MHz, SF9BW125, 4/5CR
2026-05-07 09:52:59 16.6875°C 6% 2 μg/m³ 2 μg/m³ 3.27V v255 No position 37059 ttn.v3 - -110 -10.25 867.9MHz, SF9BW125, 4/5CR
2026-05-07 09:21:22 14.6875°C 75.625% 1 μg/m³ 1 μg/m³ 3.27V v255 No position 37057 ttn.v3 - -107 -10.25 867.7MHz, SF9BW125, 4/5CR
- -129 -14.25 867.7MHz, SF9BW125, 4/5CR
2026-05-07 09:07:42 13.5625°C 74% 3 μg/m³ 5 μg/m³ 3.27V v255 No position 37056 ttn.v3 - -115 -16.25 868.3MHz, SF12BW125, 4/5CR
2026-05-07 08:34:05 11.5625°C 61.125% 1 μg/m³ 2 μg/m³ 3.28V v255 No position 37054 ttn.v3 - -125 -10.75 868.1MHz, SF9BW125, 4/5CR
- -124 -12.8 868.1MHz, SF9BW125, 4/5CR
- -117 -13.25 868.1MHz, SF9BW125, 4/5CR
2026-05-07 08:18:18 9.9375°C 53% 2 μg/m³ 5 μg/m³ 3.28V v255 No position 37053 ttn.v3 - -119 -3.75 867.3MHz, SF9BW125, 4/5CR
- -123 -12.2 867.3MHz, SF9BW125, 4/5CR
2026-05-07 07:46:45 8.5625°C 44.25% 1 μg/m³ 2 μg/m³ 3.27V v255 No position 37051 ttn.v3 - -122 -6 867.1MHz, SF9BW125, 4/5CR
2026-05-07 07:15:13 8.0625°C 43.1875% 3 μg/m³ 4 μg/m³ 3.27V v255 No position 37049 ttn.v3 - -110 -9.75 867.9MHz, SF9BW125, 4/5CR
- -124 -10.25 867.9MHz, SF9BW125, 4/5CR
- -128 -11.5 867.9MHz, SF9BW125, 4/5CR
2026-05-07 06:59:26 8.125°C 43% 4 μg/m³ 5 μg/m³ 3.28V v255 No position 37048 ttn.v3 - -124 -11.5 868.1MHz, SF9BW125, 4/5CR
2026-05-07 05:40:35 7.125°C 44.5% 2 μg/m³ 2 μg/m³ 3.28V v255 No position 37043 ttn.v3 - -124 -9.5 867.3MHz, SF9BW125, 4/5CR
2026-05-07 05:24:49 7.0625°C 45.125% 2 μg/m³ 2 μg/m³ 3.28V v255 No position 37042 ttn.v3 - -124 -14 868.1MHz, SF9BW125, 4/5CR
2026-05-07 05:09:03 7.1875°C 47.5% 1 μg/m³ 1 μg/m³ 3.28V v255 No position 37041 ttn.v3 - -125 -10.2 867.1MHz, SF9BW125, 4/5CR
2026-05-07 04:37:31 7.4375°C 53.3125% 2 μg/m³ 3 μg/m³ 3.28V v255 No position 37039 ttn.v3 - -125 -13.8 867.9MHz, SF9BW125, 4/5CR
2026-05-07 03:50:12 8.25°C 105.625% 1 μg/m³ 1 μg/m³ 3.28V v255 No position 37036 ttn.v3 - -117 -13.75 868.1MHz, SF9BW125, 4/5CR
2026-05-07 03:02:53 8.6875°C 0.8125% 1 μg/m³ 2 μg/m³ 3.28V v255 No position 37033 ttn.v3 - -124 -9 867.3MHz, SF9BW125, 4/5CR
- -130 -14 867.3MHz, SF9BW125, 4/5CR
2026-05-07 02:31:20 9°C 5.375% 6 μg/m³ 11 μg/m³ 3.28V v255 No position 37031 ttn.v3 - -128 -11.75 867.1MHz, SF9BW125, 4/5CR
- -124 -12.5 867.1MHz, SF9BW125, 4/5CR
2026-05-07 02:15:33 9.0625°C 7.3125% 4 μg/m³ 6 μg/m³ 3.27V v255 No position 37030 ttn.v3 - -128 -12.25 868.1MHz, SF9BW125, 4/5CR
2026-05-07 01:59:47 9.3125°C 9.9375% 2 μg/m³ 2 μg/m³ 3.28V v255 No position 37029 ttn.v3 - -130 -13.5 867.9MHz, SF9BW125, 4/5CR
2026-05-07 00:56:40 10.5625°C 6.25% 2 μg/m³ 3 μg/m³ 3.27V v255 No position 37025 ttn.v3 - -123 -9.2 867.5MHz, SF9BW125, 4/5CR
2026-05-07 00:40:53 10.75°C 4.4375% 4 μg/m³ 6 μg/m³ 3.27V v255 No position 37024 ttn.v3 - -124 -13 868.1MHz, SF9BW125, 4/5CR
2026-05-07 00:25:06 10.9375°C 2.25% 3 μg/m³ 4 μg/m³ 3.27V v255 No position 37023 ttn.v3 - -123 -7 867.3MHz, SF9BW125, 4/5CR
- -110 -8.25 867.3MHz, SF9BW125, 4/5CR
- -126 -10 867.3MHz, SF9BW125, 4/5CR
2026-05-06 23:53:32 11.125°C -3.0625% 1 μg/m³ 1 μg/m³ 3.28V v255 No position 37021 ttn.v3 - -124 -6.5 867.1MHz, SF9BW125, 4/5CR
- -128 -10.75 867.1MHz, SF9BW125, 4/5CR
- -108 -10.75 867.1MHz, SF9BW125, 4/5CR
2026-05-06 23:21:57 11.375°C -5.75% 1 μg/m³ 2 μg/m³ 3.27V v255 No position 37019 ttn.v3 - -124 -8 867.9MHz, SF9BW125, 4/5CR
- -128 -11.25 867.9MHz, SF9BW125, 4/5CR
2026-05-06 23:06:10 11.5625°C -5.25% 2 μg/m³ 2 μg/m³ 3.28V v255 No position 37018 ttn.v3 - -123 -7.5 868.1MHz, SF9BW125, 4/5CR
2026-05-06 22:50:23 11.6875°C -4.5% 2 μg/m³ 2 μg/m³ 3.27V v255 No position 37017 ttn.v3 - -124 -9.8 867.7MHz, SF9BW125, 4/5CR
2026-05-06 21:47:14 12.375°C -4.3125% 3 μg/m³ 4 μg/m³ 3.27V v255 No position 37013 ttn.v3 - -124 -9.8 867.3MHz, SF9BW125, 4/5CR
2026-05-06 21:31:26 12.5°C 111.875% 1 μg/m³ 2 μg/m³ 3.27V v255 No position 37012 ttn.v3 - -115 -12.25 868.1MHz, SF9BW125, 4/5CR
2026-05-06 21:15:39 12.5625°C 95.9375% 2 μg/m³ 3 μg/m³ 3.28V v255 No position 37011 ttn.v3 - -127 -11.25 867.1MHz, SF9BW125, 4/5CR
- -125 -11.8 867.1MHz, SF9BW125, 4/5CR
2026-05-06 20:44:04 12.6875°C 96.9375% 2 μg/m³ 4 μg/m³ 3.27V v255 No position 37009 ttn.v3 - -126 -9.25 867.9MHz, SF9BW125, 4/5CR
- -109 -9.5 867.9MHz, SF9BW125, 4/5CR
- -123 -11.25 867.9MHz, SF9BW125, 4/5CR
- -125 -14.2 867.9MHz, SF9BW125, 4/5CR
2026-05-06 19:56:41 13.125°C 90.625% 2 μg/m³ 2 μg/m³ 3.27V v255 No position 37006 ttn.v3 - -122 -7.25 868.1MHz, SF9BW125, 4/5CR
- -124 -9.8 868.1MHz, SF9BW125, 4/5CR
2026-05-06 19:09:18 13.5625°C 85.8125% 1 μg/m³ 1 μg/m³ 3.27V v255 No position 37003 ttn.v3 - -123 -9.5 867.3MHz, SF9BW125, 4/5CR
2026-05-06 18:37:42 14.0625°C 85.5% 1 μg/m³ 1 μg/m³ 3.27V v255 No position 37001 ttn.v3 - -126 -10 867.1MHz, SF9BW125, 4/5CR
- -124 -10.2 867.1MHz, SF9BW125, 4/5CR
- -129 -11.75 867.1MHz, SF9BW125, 4/5CR
2026-05-06 18:21:54 14.0625°C 84.1875% 4 μg/m³ 6 μg/m³ 3.27V v255 No position 37000 ttn.v3 - -124 -10.2 868.1MHz, SF9BW125, 4/5CR
2026-05-06 18:06:06 14.125°C 83.0625% 5 μg/m³ 5 μg/m³ 3.27V v255 No position 36999 ttn.v3 - -124 -6.8 867.9MHz, SF9BW125, 4/5CR
- -128 -11.75 867.9MHz, SF9BW125, 4/5CR
- -115 -14 867.9MHz, SF9BW125, 4/5CR
2026-05-06 16:31:17 13.8125°C 86.5% 1 μg/m³ 2 μg/m³ 3.27V v255 No position 36993 ttn.v3 - -123 -12.5 867.3MHz, SF9BW125, 4/5CR
- -128 -12.75 867.3MHz, SF9BW125, 4/5CR
2026-05-06 15:59:41 13.75°C 85.5% 1 μg/m³ 2 μg/m³ 3.27V v255 No position 36991 ttn.v3 - -125 -8.25 867.1MHz, SF9BW125, 4/5CR
- -125 -12.8 867.1MHz, SF9BW125, 4/5CR
2026-05-06 15:28:05 13.8125°C 86.5625% 3 μg/m³ 3 μg/m³ 3.27V v255 No position 36989 ttn.v3 - -124 -10 867.9MHz, SF9BW125, 4/5CR
- -124 -12 867.9MHz, SF9BW125, 4/5CR
- -106 -12 867.9MHz, SF9BW125, 4/5CR
2026-05-06 15:12:17 14°C 83.6875% 1 μg/m³ 1 μg/m³ 3.27V v255 No position 36988 ttn.v3 - -122 -8.25 868.1MHz, SF9BW125, 4/5CR
2026-05-06 14:56:29 14.4375°C 80.0625% 1 μg/m³ 1 μg/m³ 3.27V v255 No position 36987 ttn.v3 - -127 -11 867.7MHz, SF9BW125, 4/5CR
2026-05-06 13:53:17 15.125°C 80.75% 2 μg/m³ 3 μg/m³ 3.27V v255 No position 36983 ttn.v3 - -129 -12.5 867.3MHz, SF9BW125, 4/5CR
2026-05-06 13:37:28 15.4375°C 89.1875% 3 μg/m³ 3 μg/m³ 3.27V v255 No position 36982 ttn.v3 - -124 -9.8 868.1MHz, SF9BW125, 4/5CR
2026-05-06 13:21:40 15°C 87.3125% 3 μg/m³ 3 μg/m³ 3.27V v255 No position 36981 ttn.v3 - -124 -8 867.1MHz, SF9BW125, 4/5CR
2026-05-06 12:50:03 16.625°C 74.1875% 1 μg/m³ 1 μg/m³ 3.27V v255 No position 36979 ttn.v3 - -125 -12.5 867.9MHz, SF9BW125, 4/5CR
2026-05-06 12:18:27 14.625°C 89.1875% 2 μg/m³ 2 μg/m³ 3.27V v255 No position 36977 ttn.v3 - -124 -9 867.7MHz, SF9BW125, 4/5CR
- -124 -10 867.7MHz, SF9BW125, 4/5CR
2026-05-06 12:02:38 15.75°C 78.875% 3 μg/m³ 4 μg/m³ 3.27V v255 No position 36976 ttn.v3 - -125 -10.2 868.1MHz, SF9BW125, 4/5CR
2026-05-06 11:46:50 17.0625°C 83.75% 4 μg/m³ 4 μg/m³ 3.27V v255 No position 36975 ttn.v3 - -123 -12.2 867.5MHz, SF9BW125, 4/5CR
2026-05-06 10:43:35 16.8125°C 91.5625% 3 μg/m³ 3 μg/m³ 3.27V v255 No position 36971 ttn.v3 - -124 -10 867.1MHz, SF9BW125, 4/5CR
- -108 -11 867.1MHz, SF9BW125, 4/5CR
2026-05-06 10:27:46 14.6875°C 111.438% 2 μg/m³ 2 μg/m³ 3.27V v255 No position 36970 ttn.v3 - -124 -11.5 868.1MHz, SF9BW125, 4/5CR
2026-05-06 10:11:59 13.75°C 117.125% 3 μg/m³ 3 μg/m³ 3.27V v255 No position 36969 ttn.v3 - -125 -11.8 867.9MHz, SF9BW125, 4/5CR
2026-05-06 09:40:23 13.5625°C 118.875% 1 μg/m³ 1 μg/m³ 3.27V v255 No position 36967 ttn.v3 - -124 -9.2 867.7MHz, SF9BW125, 4/5CR
2026-05-06 09:08:48 12.9375°C 18.5% 2 μg/m³ 3 μg/m³ 3.27V v255 No position 36965 ttn.v3 - -123 -12.2 867.5MHz, SF9BW125, 4/5CR
2026-05-06 08:05:39 11.1875°C 77.1875% 9 μg/m³ 10 μg/m³ 3.27V v255 No position 36961 ttn.v3 - -122 -6.75 867.1MHz, SF9BW125, 4/5CR
2026-05-06 07:52:00 11°C 67.4375% 3 μg/m³ 3 μg/m³ 3.27V v255 No position 36960 ttn.v3 - -114 -20 868.3MHz, SF12BW125, 4/5CR
2026-05-06 07:34:11 10.75°C 65.1875% 2 μg/m³ 2 μg/m³ 3.28V v255 52.0754 / 5.11353 36959 ttn.v3 1.203km -125 -11 867.9MHz, SF9BW125, 4/5CR
- -120 -13.75 867.9MHz, SF9BW125, 4/5CR
2026-05-06 07:18:24 10.5°C 60.75% 2 μg/m³ 3 μg/m³ 3.27V v255 52.0754 / 5.11353 36958 ttn.v3 2.656km -128 -12.25 868.1MHz, SF9BW125, 4/5CR
- -115 -12.75 868.1MHz, SF9BW125, 4/5CR
2026-05-06 07:02:37 10.3125°C 56.75% 3 μg/m³ 4 μg/m³ 3.28V v255 52.0754 / 5.11353 36957 ttn.v3 1.203km -123 -16 867.7MHz, SF9BW125, 4/5CR
2026-05-06 06:46:50 10.125°C 53.1875% 5 μg/m³ 5 μg/m³ 3.28V v255 52.0754 / 5.11353 36956 ttn.v3 2.656km -121 -12.5 868.5MHz, SF9BW125, 4/5CR
2026-05-06 05:59:29 9.9375°C 91.75% 5 μg/m³ 5 μg/m³ 3.28V v255 52.0754 / 5.11353 36953 ttn.v3 2.656km -127 -7 867.3MHz, SF9BW125, 4/5CR
1.203km -124 -13 867.3MHz, SF9BW125, 4/5CR
2026-05-06 05:43:42 9.875°C 93.875% 5 μg/m³ 6 μg/m³ 3.28V v255 52.0754 / 5.11353 36952 ttn.v3 2.656km -125 -10.5 868.1MHz, SF9BW125, 4/5CR
2026-05-06 05:27:55 9.875°C 88.0625% 4 μg/m³ 6 μg/m³ 3.28V v255 52.0754 / 5.11353 36951 ttn.v3 2.656km -120 -3.5 867.1MHz, SF9BW125, 4/5CR
1.203km -125 -10.8 867.1MHz, SF9BW125, 4/5CR
3.479km -107 -11 867.1MHz, SF9BW125, 4/5CR
2026-05-06 05:12:08 9.8125°C 90.875% 5 μg/m³ 5 μg/m³ 3.27V v255 52.0754 / 5.11353 36950 ttn.v3 2.656km -123 -11.5 868.5MHz, SF9BW125, 4/5CR
2026-05-06 04:56:22 9.75°C 92.1875% 5 μg/m³ 5 μg/m³ 3.27V v255 52.0754 / 5.11353 36949 ttn.v3 2.656km -122 -4.75 867.9MHz, SF9BW125, 4/5CR
- -120 -5.75 867.9MHz, SF9BW125, 4/5CR
3.479km -111 -10.25 867.9MHz, SF9BW125, 4/5CR
2026-05-06 04:24:48 9.8125°C 109.375% 5 μg/m³ 5 μg/m³ 3.28V v255 52.0754 / 5.11353 36947 ttn.v3 2.656km -122 -6 867.7MHz, SF9BW125, 4/5CR
2026-05-06 04:09:02 9.875°C -5.6875% 4 μg/m³ 4 μg/m³ 3.27V v255 52.0754 / 5.11353 36946 ttn.v3 1.203km -124 -11.2 868.1MHz, SF9BW125, 4/5CR
2026-05-06 03:53:15 10°C 8.5625% 6 μg/m³ 6 μg/m³ 3.28V v255 52.0754 / 5.11353 36945 ttn.v3 2.656km -123 -9.25 867.5MHz, SF9BW125, 4/5CR
1.203km -124 -13.5 867.5MHz, SF9BW125, 4/5CR
2026-05-06 03:21:41 10.1875°C 15.125% 6 μg/m³ 6 μg/m³ 3.27V v255 52.0754 / 5.11353 36943 ttn.v3 2.656km -121 -5.5 867.3MHz, SF9BW125, 4/5CR
2026-05-06 02:50:07 10.1875°C 9.8125% 6 μg/m³ 8 μg/m³ 3.27V v255 52.0754 / 5.11353 36941 ttn.v3 2.656km -119 -2.25 867.1MHz, SF9BW125, 4/5CR
3.479km -109 -9 867.1MHz, SF9BW125, 4/5CR
1.203km -125 -13.8 867.1MHz, SF9BW125, 4/5CR
2026-05-06 02:34:21 10.1875°C 2.1875% 7 μg/m³ 8 μg/m³ 3.27V v255 52.0754 / 5.11353 36940 ttn.v3 1.203km -124 -9 868.1MHz, SF9BW125, 4/5CR
2026-05-06 02:18:34 10.125°C 117.75% 3 μg/m³ 3 μg/m³ 3.28V v255 52.0754 / 5.11353 36939 ttn.v3 2.656km -121 -4 867.9MHz, SF9BW125, 4/5CR
- -121 -6.75 867.9MHz, SF9BW125, 4/5CR
3.479km -109 -9 867.9MHz, SF9BW125, 4/5CR
- -115 -13.75 867.9MHz, SF9BW125, 4/5CR
2026-05-06 02:02:47 10.125°C 115.5% 6 μg/m³ 7 μg/m³ 3.27V v255 52.0754 / 5.11353 36938 ttn.v3 2.656km -121 -13.75 868.5MHz, SF9BW125, 4/5CR
2026-05-06 00:59:40 10.125°C 118.5% 7 μg/m³ 7 μg/m³ 3.28V v255 52.0754 / 5.11353 36934 ttn.v3 1.203km -123 -10.5 868.1MHz, SF9BW125, 4/5CR
2026-05-06 00:43:53 10.125°C 0.125% 6 μg/m³ 7 μg/m³ 3.28V v255 52.0754 / 5.11353 36933 ttn.v3 2.656km -120 -4.25 867.3MHz, SF9BW125, 4/5CR
2026-05-06 00:28:06 10.125°C 10.375% 6 μg/m³ 6 μg/m³ 3.28V v255 52.0754 / 5.11353 36932 ttn.v3 2.656km -122 -14.5 868.5MHz, SF9BW125, 4/5CR
2026-05-06 00:12:19 10.125°C 17.8125% 4 μg/m³ 5 μg/m³ 3.28V v255 52.0754 / 5.11353 36931 ttn.v3 2.656km -120 -3.75 867.1MHz, SF9BW125, 4/5CR
2026-05-05 23:56:33 10°C 19.9375% 3 μg/m³ 3 μg/m³ 3.27V v255 52.0754 / 5.11353 36930 ttn.v3 - -115 -11.5 868.3MHz, SF9BW125, 4/5CR
1.203km -116 -15 868.3MHz, SF9BW125, 4/5CR
2026-05-05 23:40:46 10°C 19.5625% 4 μg/m³ 4 μg/m³ 3.27V v255 52.0754 / 5.11353 36929 ttn.v3 2.656km -121 -4.25 867.9MHz, SF9BW125, 4/5CR
- -120 -5.75 867.9MHz, SF9BW125, 4/5CR
3.479km -109 -9.25 867.9MHz, SF9BW125, 4/5CR
1.203km -125 -13.8 867.9MHz, SF9BW125, 4/5CR
2026-05-05 23:24:59 10.125°C 18.9375% 4 μg/m³ 5 μg/m³ 3.27V v255 52.0754 / 5.11353 36928 ttn.v3 2.656km -122 -6.75 868.1MHz, SF9BW125, 4/5CR
1.203km -125 -12.5 868.1MHz, SF9BW125, 4/5CR
2026-05-05 23:09:12 10.3125°C 18.25% 2 μg/m³ 2 μg/m³ 3.28V v255 52.0754 / 5.11353 36927 ttn.v3 2.656km -121 -6.25 867.7MHz, SF9BW125, 4/5CR
1.203km -124 -11.8 867.7MHz, SF9BW125, 4/5CR
2026-05-05 22:37:38 10.9375°C 15.6875% 8 μg/m³ 9 μg/m³ 3.28V v255 52.0754 / 5.11353 36925 ttn.v3 1.203km -123 -10.5 867.5MHz, SF9BW125, 4/5CR
2026-05-05 22:21:51 11.3125°C 15.4375% 2 μg/m³ 2 μg/m³ 3.27V v255 52.0754 / 5.11353 36924 ttn.v3 2.656km -121 -12.5 868.3MHz, SF9BW125, 4/5CR
2026-05-05 22:06:04 11.5°C 16.125% 5 μg/m³ 5 μg/m³ 3.27V v255 52.0754 / 5.11353 36923 ttn.v3 2.656km -121 -5.5 867.3MHz, SF9BW125, 4/5CR
2026-05-05 21:50:17 11.5625°C 15.9375% 7 μg/m³ 7 μg/m³ 3.27V v255 52.0754 / 5.11353 36922 ttn.v3 1.203km -124 -10.2 868.1MHz, SF9BW125, 4/5CR
3.479km -107 -13.5 868.1MHz, SF9BW125, 4/5CR
2026-05-05 21:34:29 11.75°C 15.6875% 6 μg/m³ 6 μg/m³ 3.27V v255 52.0754 / 5.11353 36921 ttn.v3 1.203km -124 -12.8 867.1MHz, SF9BW125, 4/5CR
2026-05-05 20:31:20 12.6875°C 11.9375% 3 μg/m³ 3 μg/m³ 3.27V v255 52.0754 / 5.11353 36917 ttn.v3 3.479km -107 -8 867.7MHz, SF9BW125, 4/5CR
2.656km -124 -11.25 867.7MHz, SF9BW125, 4/5CR
2026-05-05 20:15:32 12.875°C 10% 6 μg/m³ 7 μg/m³ 3.27V v255 52.0754 / 5.11353 36916 ttn.v3 2.656km -126 -11.25 868.1MHz, SF9BW125, 4/5CR
2026-05-05 19:43:57 13.5625°C 5.375% 3 μg/m³ 3 μg/m³ 3.28V v255 52.0754 / 5.11353 36914 ttn.v3 1.203km -115 -15 868.5MHz, SF9BW125, 4/5CR
2026-05-05 18:56:33 15°C -5.5625% 3 μg/m³ 3 μg/m³ 3.27V v255 52.0754 / 5.11353 36911 ttn.v3 2.656km -121 -5 867.1MHz, SF9BW125, 4/5CR
3.479km -104 -11.75 867.1MHz, SF9BW125, 4/5CR
2026-05-05 18:24:56 15.6875°C 112.875% 5 μg/m³ 5 μg/m³ 3.27V v255 52.0754 / 5.11353 36909 ttn.v3 1.203km -124 -12.2 867.9MHz, SF9BW125, 4/5CR
2026-05-05 18:09:07 16.625°C 104.625% 5 μg/m³ 5 μg/m³ 3.27V v255 52.0754 / 5.11353 36908 ttn.v3 2.656km -122 -11.5 868.5MHz, SF9BW125, 4/5CR
2026-05-05 17:53:19 16.5°C 105.812% 6 μg/m³ 8 μg/m³ 3.27V v255 52.0754 / 5.11353 36907 ttn.v3 2.656km -122 -11.75 867.7MHz, SF9BW125, 4/5CR
2026-05-05 17:05:52 17.25°C 106.25% 8 μg/m³ 9 μg/m³ 3.27V v255 52.0754 / 5.11353 36904 ttn.v3 1.203km -123 -9 868.1MHz, SF9BW125, 4/5CR
2026-05-05 16:50:03 17°C 108.25% 5 μg/m³ 5 μg/m³ 3.27V v255 52.0754 / 5.11353 36903 ttn.v3 2.656km -124 -7.25 867.3MHz, SF9BW125, 4/5CR
2026-05-05 15:46:46 18.75°C 116.438% 6 μg/m³ 6 μg/m³ 3.27V v255 52.0754 / 5.11353 36899 ttn.v3 1.203km -125 -10 867.9MHz, SF9BW125, 4/5CR
2.656km -128 -12.75 867.9MHz, SF9BW125, 4/5CR
2026-05-05 15:30:57 19.3125°C 3.5625% 5 μg/m³ 5 μg/m³ 3.27V v255 52.0754 / 5.11353 36898 ttn.v3 1.203km -124 -9.5 868.1MHz, SF9BW125, 4/5CR
2026-05-05 14:43:29 17°C 72.25% 4 μg/m³ 4 μg/m³ 3.27V v255 52.0754 / 5.11353 36895 ttn.v3 1.203km -121 -11 867.5MHz, SF9BW125, 4/5CR
2026-05-05 13:40:17 13.1875°C 48.9375% 7 μg/m³ 7 μg/m³ 3.27V v255 52.0754 / 5.11353 36891 ttn.v3 2.656km -126 -9.5 867.1MHz, SF9BW125, 4/5CR
2026-05-05 13:08:41 12.75°C 44.5% 10 μg/m³ 12 μg/m³ 3.27V v255 52.0754 / 5.11353 36889 ttn.v3 2.656km -123 -7.75 867.9MHz, SF9BW125, 4/5CR
1.203km -125 -10.8 867.9MHz, SF9BW125, 4/5CR
2026-05-05 12:37:07 12.3125°C 43.0625% 9 μg/m³ 10 μg/m³ 3.27V v255 52.0754 / 5.11353 36887 ttn.v3 3.479km -107 -11.5 867.7MHz, SF9BW125, 4/5CR
1.203km -124 -13.2 867.7MHz, SF9BW125, 4/5CR
2026-05-05 12:21:19 11.75°C 40.8125% 6 μg/m³ 6 μg/m³ 3.27V v255 52.0754 / 5.11353 36886 ttn.v3 1.203km -124 -11.8 868.1MHz, SF9BW125, 4/5CR
2026-05-05 11:33:57 11.875°C 42% 5 μg/m³ 5 μg/m³ 3.28V v255 52.0754 / 5.11353 36883 ttn.v3 2.656km -126 -10.75 867.3MHz, SF9BW125, 4/5CR
2026-05-05 11:02:23 11.375°C 41.3125% 6 μg/m³ 6 μg/m³ 3.27V v255 52.0754 / 5.11353 36881 ttn.v3 1.203km -124 -9.2 867.1MHz, SF9BW125, 4/5CR
2026-05-05 10:30:48 11.625°C 42.5% 5 μg/m³ 5 μg/m³ 3.27V v255 52.0754 / 5.11353 36879 ttn.v3 1.203km -124 -7 867.9MHz, SF9BW125, 4/5CR
- -114 -12.5 867.9MHz, SF9BW125, 4/5CR
2026-05-05 09:59:14 11.0625°C 36.3125% 9 μg/m³ 10 μg/m³ 3.27V v255 52.0754 / 5.11353 36877 ttn.v3 1.203km -124 -12.8 867.7MHz, SF9BW125, 4/5CR
2026-05-05 09:11:53 10.375°C 33.375% 7 μg/m³ 7 μg/m³ 3.28V v255 52.0754 / 5.11353 36874 ttn.v3 1.203km -123 -6.8 868.1MHz, SF9BW125, 4/5CR
2.656km -128 -13.25 868.1MHz, SF9BW125, 4/5CR
2026-05-05 08:24:32 9.875°C 30.0625% 9 μg/m³ 9 μg/m³ 3.27V v255 52.0754 / 5.11353 36871 ttn.v3 1.203km -124 -13.5 867.1MHz, SF9BW125, 4/5CR
2026-05-05 07:52:59 9.6875°C 29.75% 11 μg/m³ 12 μg/m³ 3.28V v255 52.0754 / 5.11353 36869 ttn.v3 2.656km -127 -12.75 867.9MHz, SF9BW125, 4/5CR
1.203km -125 -13.2 867.9MHz, SF9BW125, 4/5CR
2026-05-05 07:37:12 9.6875°C 29.8125% 11 μg/m³ 12 μg/m³ 3.28V v255 52.0754 / 5.11353 36868 ttn.v3 2.656km -127 -11 868.1MHz, SF9BW125, 4/5CR
1.203km -124 -11 868.1MHz, SF9BW125, 4/5CR
2026-05-05 06:49:52 9.6875°C 29.875% 12 μg/m³ 13 μg/m³ 3.27V v255 52.0754 / 5.11353 36865 ttn.v3 1.203km -123 -9.8 867.5MHz, SF9BW125, 4/5CR
2026-05-05 06:36:13 9.6875°C 30.0625% 12 μg/m³ 15 μg/m³ 3.27V v255 52.0754 / 5.11353 36864 ttn.v3 - -117 -17.5 868.3MHz, SF12BW125, 4/5CR
1.203km -109 -22 868.3MHz, SF12BW125, 4/5CR
2026-05-05 06:18:25 9.6875°C 30.3125% 12 μg/m³ 14 μg/m³ 3.28V v255 No position 36863 ttn.v3 - -124 -11.2 867.3MHz, SF9BW125, 4/5CR
2026-05-05 06:02:38 9.8125°C 30.375% 12 μg/m³ 13 μg/m³ 3.28V v255 No position 36862 ttn.v3 - -124 -10 868.1MHz, SF9BW125, 4/5CR
2026-05-05 05:46:51 9.9375°C 30.4375% 6 μg/m³ 6 μg/m³ 3.27V v255 No position 36861 ttn.v3 - -132 -15.5 867.1MHz, SF9BW125, 4/5CR
2026-05-05 05:15:17 10.25°C 30.125% 11 μg/m³ 12 μg/m³ 3.28V v255 No position 36859 ttn.v3 - -124 -6.5 867.9MHz, SF9BW125, 4/5CR
- -115 -13.5 867.9MHz, SF9BW125, 4/5CR
2026-05-05 04:43:43 10.5625°C 30.3125% 9 μg/m³ 9 μg/m³ 3.27V v255 No position 36857 ttn.v3 - -125 -9.25 867.7MHz, SF9BW125, 4/5CR
2026-05-05 04:27:56 10.6875°C 30.4375% 10 μg/m³ 11 μg/m³ 3.27V v255 No position 36856 ttn.v3 - -123 -8.2 868.1MHz, SF9BW125, 4/5CR
- -126 -11.75 868.1MHz, SF9BW125, 4/5CR
2026-05-05 04:12:09 10.8125°C 30.375% 6 μg/m³ 6 μg/m³ 3.28V v255 No position 36855 ttn.v3 - -123 -12.5 867.5MHz, SF9BW125, 4/5CR
2026-05-05 03:40:35 11°C 30.25% 9 μg/m³ 9 μg/m³ 3.28V v255 No position 36853 ttn.v3 - -123 -13.2 867.3MHz, SF9BW125, 4/5CR
2026-05-05 03:09:01 11.25°C 30.125% 7 μg/m³ 7 μg/m³ 3.28V v255 No position 36851 ttn.v3 - -108 -10.75 867.1MHz, SF9BW125, 4/5CR
- -131 -13.5 867.1MHz, SF9BW125, 4/5CR
2026-05-05 02:53:14 11.375°C 30.375% 10 μg/m³ 11 μg/m³ 3.28V v255 No position 36850 ttn.v3 - -111 -11.75 868.1MHz, SF9BW125, 4/5CR
2026-05-05 02:37:26 11.5°C 30.5% 7 μg/m³ 7 μg/m³ 3.27V v255 No position 36849 ttn.v3 - -109 -10.5 867.9MHz, SF9BW125, 4/5CR
2026-05-05 02:05:52 11.8125°C 29.625% 12 μg/m³ 13 μg/m³ 3.28V v255 No position 36847 ttn.v3 - -124 -11.75 867.7MHz, SF9BW125, 4/5CR
2026-05-05 01:50:04 12.0625°C 29.875% 9 μg/m³ 9 μg/m³ 3.28V v255 No position 36846 ttn.v3 - -114 -13.75 868.3MHz, SF9BW125, 4/5CR
2026-05-05 01:18:30 12.3125°C 29.4375% 9 μg/m³ 9 μg/m³ 3.27V v255 No position 36844 ttn.v3 - -124 -11.2 868.1MHz, SF9BW125, 4/5CR
2026-05-05 01:02:42 12.5°C 29% 11 μg/m³ 13 μg/m³ 3.27V v255 No position 36843 ttn.v3 - -124 -12.5 867.3MHz, SF9BW125, 4/5CR
2026-05-05 00:31:07 12.75°C 28.3125% 7 μg/m³ 8 μg/m³ 3.28V v255 No position 36841 ttn.v3 - -103 -11.75 867.1MHz, SF9BW125, 4/5CR
- -125 -14.5 867.1MHz, SF9BW125, 4/5CR
2026-05-04 23:59:31 13°C 27.8125% 9 μg/m³ 10 μg/m³ 3.27V v255 No position 36839 ttn.v3 - -124 -11.5 867.9MHz, SF9BW125, 4/5CR
- -124 -12 867.9MHz, SF9BW125, 4/5CR
2026-05-04 23:43:43 13.125°C 27.75% 10 μg/m³ 11 μg/m³ 3.27V v255 No position 36838 ttn.v3 - -124 -14.5 868.1MHz, SF9BW125, 4/5CR
2026-05-04 23:27:55 13.3125°C 27.875% 10 μg/m³ 10 μg/m³ 3.27V v255 No position 36837 ttn.v3 - -124 -13 867.7MHz, SF9BW125, 4/5CR
2026-05-04 22:56:19 13.5°C 26.3125% 13 μg/m³ 13 μg/m³ 3.27V v255 No position 36835 ttn.v3 - -122 -12.8 867.5MHz, SF9BW125, 4/5CR
2026-05-04 22:24:43 13.6875°C 27% 11 μg/m³ 11 μg/m³ 3.28V v255 No position 36833 ttn.v3 - -123 -7.2 867.3MHz, SF9BW125, 4/5CR
2026-05-04 21:53:07 13.9375°C 26.375% 13 μg/m³ 13 μg/m³ 3.27V v255 No position 36831 ttn.v3 - -127 -10.75 867.1MHz, SF9BW125, 4/5CR
- -105 -11 867.1MHz, SF9BW125, 4/5CR
2026-05-04 21:21:31 14.5°C 28.6875% 19 μg/m³ 19 μg/m³ 3.27V v255 No position 36829 ttn.v3 - -109 -11 867.9MHz, SF9BW125, 4/5CR
- -125 -11.5 867.9MHz, SF9BW125, 4/5CR
2026-05-04 20:49:54 15.0625°C 29.6875% 12 μg/m³ 13 μg/m³ 3.27V v255 No position 36827 ttn.v3 - -124 -11.5 867.7MHz, SF9BW125, 4/5CR
- -130 -14.25 867.7MHz, SF9BW125, 4/5CR
2026-05-04 20:34:06 15.25°C 29.8125% 14 μg/m³ 14 μg/m³ 3.27V v255 No position 36826 ttn.v3 - -124 -12.5 868.1MHz, SF9BW125, 4/5CR
2026-05-04 19:15:02 17.125°C 35.6875% 17 μg/m³ 18 μg/m³ 3.27V v255 No position 36821 ttn.v3 - -124 -10 867.1MHz, SF9BW125, 4/5CR
- -128 -11.25 867.1MHz, SF9BW125, 4/5CR
2026-05-04 18:59:13 17.625°C 37.6875% 16 μg/m³ 18 μg/m³ 3.27V v255 No position 36820 ttn.v3 - -125 -14.8 868.1MHz, SF9BW125, 4/5CR
2026-05-04 18:11:45 18.3125°C 36.6875% 23 μg/m³ 23 μg/m³ 3.27V v255 No position 36817 ttn.v3 - -103 -8.75 867.7MHz, SF9BW125, 4/5CR
2026-05-04 16:52:35 21.5°C 54.125% 15 μg/m³ 15 μg/m³ 3.27V v255 No position 36812 ttn.v3 - -115 -13.5 868.5MHz, SF9BW125, 4/5CR
2026-05-04 16:36:44 22.0625°C 57.4375% 15 μg/m³ 17 μg/m³ 3.27V v255 No position 36811 ttn.v3 - -129 -12.25 867.1MHz, SF9BW125, 4/5CR
2026-05-04 16:05:06 20°C 41.6875% 15 μg/m³ 16 μg/m³ 3.27V v255 No position 36809 ttn.v3 - -114 -13.5 867.9MHz, SF9BW125, 4/5CR
2026-05-04 15:33:24 21.1875°C 52.125% 18 μg/m³ 18 μg/m³ 3.27V v255 No position 36807 ttn.v3 - -124 -12.5 867.7MHz, SF9BW125, 4/5CR
2026-05-04 14:14:12 21.5625°C 49.625% 13 μg/m³ 13 μg/m³ 3.27V v255 No position 36802 ttn.v3 - -123 -8.5 868.1MHz, SF9BW125, 4/5CR
2026-05-04 12:55:02 20.4375°C 35% 21 μg/m³ 22 μg/m³ 3.27V v255 No position 36797 ttn.v3 - -106 -11.75 867.7MHz, SF9BW125, 4/5CR
- -124 -12.2 867.7MHz, SF9BW125, 4/5CR
2026-05-04 11:20:06 16°C 18.0625% 24 μg/m³ 31 μg/m³ 3.27V v255 No position 36791 ttn.v3 - -126 -10.75 867.1MHz, SF9BW125, 4/5CR
2026-05-04 10:48:29 15.3125°C 16.625% 37 μg/m³ 56 μg/m³ 3.27V v255 No position 36789 ttn.v3 - -127 -10.75 867.9MHz, SF9BW125, 4/5CR
2026-05-04 10:32:41 15°C 16.4375% 32 μg/m³ 41 μg/m³ 3.27V v255 No position 36788 ttn.v3 - -115 -13.25 868.5MHz, SF9BW125, 4/5CR
2026-05-04 10:16:53 14.8125°C 17.125% 52 μg/m³ 75 μg/m³ 3.27V v255 No position 36787 ttn.v3 - -124 -15.2 867.7MHz, SF9BW125, 4/5CR
2026-05-04 09:29:29 14.25°C 25.5625% 70 μg/m³ 117 μg/m³ 3.27V v255 No position 36784 ttn.v3 - -129 -13.5 868.1MHz, SF9BW125, 4/5CR
2026-05-04 08:42:06 13.125°C 35.3125% 53 μg/m³ 75 μg/m³ 3.27V v255 No position 36781 ttn.v3 - -122 -5.5 867.1MHz, SF9BW125, 4/5CR
- -125 -13.2 867.1MHz, SF9BW125, 4/5CR
2026-05-04 08:10:31 13.125°C 36.3125% 56 μg/m³ 88 μg/m³ 3.27V v255 No position 36779 ttn.v3 - -124 -9.5 867.9MHz, SF9BW125, 4/5CR
- -104 -12 867.9MHz, SF9BW125, 4/5CR
2026-05-04 07:54:43 12.9375°C 42.375% 53 μg/m³ 85 μg/m³ 3.27V v255 No position 36778 ttn.v3 - -117 -12.5 868.1MHz, SF9BW125, 4/5CR
2026-05-04 07:38:56 12.6875°C 44.6875% 46 μg/m³ 73 μg/m³ 3.27V v255 No position 36777 ttn.v3 - -124 -11.5 867.7MHz, SF9BW125, 4/5CR
- -127 -12 867.7MHz, SF9BW125, 4/5CR
2026-05-04 07:23:08 12.5°C 47.9375% 63 μg/m³ 99 μg/m³ 3.27V v255 No position 36776 ttn.v3 - -114 -13.75 868.5MHz, SF9BW125, 4/5CR
2026-05-04 05:32:37 11.9375°C 51.5625% 47 μg/m³ 70 μg/m³ 3.27V v255 No position 36769 ttn.v3 - -113 -7.5 867.9MHz, SF9BW125, 4/5CR
2026-05-04 05:18:57 11.9375°C 52.5625% 42 μg/m³ 62 μg/m³ 3.27V v255 No position 36768 ttn.v3 - -115 -15.5 868.3MHz, SF12BW125, 4/5CR
2026-05-04 05:01:08 11.6875°C 51.25% 22 μg/m³ 27 μg/m³ 3.27V v255 No position 36767 ttn.v3 - -131 -14 867.7MHz, SF9BW125, 4/5CR
2026-05-04 04:45:21 11.625°C 49.5625% 30 μg/m³ 43 μg/m³ 3.27V v255 No position 36766 ttn.v3 - -128 -14 868.1MHz, SF9BW125, 4/5CR
2026-05-04 02:54:50 12.25°C 42.25% 28 μg/m³ 35 μg/m³ 3.28V v255 No position 36759 ttn.v3 - -123 -11.5 867.9MHz, SF9BW125, 4/5CR
- -115 -13.75 867.9MHz, SF9BW125, 4/5CR
- -125 -15.5 867.9MHz, SF9BW125, 4/5CR
2026-05-04 01:35:53 11.8125°C 37.125% 14 μg/m³ 16 μg/m³ 3.27V v255 No position 36754 ttn.v3 - -128 -13.75 868.1MHz, SF9BW125, 4/5CR
2026-05-04 00:16:56 12.5625°C 32.625% 9 μg/m³ 11 μg/m³ 3.27V v255 No position 36749 ttn.v3 - -103 -11.25 867.9MHz, SF9BW125, 4/5CR
- -125 -14 867.9MHz, SF9BW125, 4/5CR
2026-05-03 21:38:58 14.5°C 28.8125% 10 μg/m³ 12 μg/m³ 3.27V v255 No position 36739 ttn.v3 - -117 -13.75 867.9MHz, SF9BW125, 4/5CR
2026-05-03 19:16:42 16.25°C 21.6875% 8 μg/m³ 8 μg/m³ 3.27V v255 No position 36730 ttn.v3 - -114 -13 868.1MHz, SF9BW125, 4/5CR
2026-05-03 19:00:53 16.375°C 21.625% 6 μg/m³ 6 μg/m³ 3.27V v255 No position 36729 ttn.v3 - -108 -11.25 867.9MHz, SF9BW125, 4/5CR
2026-05-03 17:41:50 15.125°C 24.625% 2 μg/m³ 2 μg/m³ 3.27V v255 No position 36724 ttn.v3 - -131 -15.25 868.1MHz, SF9BW125, 4/5CR
2026-05-03 16:54:25 16.125°C 21.5625% 7 μg/m³ 7 μg/m³ 3.27V v255 No position 36721 ttn.v3 - -109 -11.75 867.1MHz, SF9BW125, 4/5CR
2026-05-03 15:51:10 16.5625°C 19.5% 7 μg/m³ 8 μg/m³ 3.27V v255 No position 36717 ttn.v3 - -107 -11.25 867.7MHz, SF9BW125, 4/5CR
2026-05-03 14:16:19 15.8125°C 22.6875% 3 μg/m³ 4 μg/m³ 3.27V v255 No position 36711 ttn.v3 - -111 -8.75 867.1MHz, SF9BW125, 4/5CR
2026-05-03 13:44:41 16.25°C 23.9375% 16 μg/m³ 16 μg/m³ 3.27V v255 No position 36709 ttn.v3 - -110 -10.25 867.9MHz, SF9BW125, 4/5CR
- -115 -13.75 867.9MHz, SF9BW125, 4/5CR
- -125 -13.8 867.9MHz, SF9BW125, 4/5CR
2026-05-03 11:38:09 18.9375°C 32.625% 6 μg/m³ 6 μg/m³ 3.27V v255 No position 36701 ttn.v3 - -110 -10 867.1MHz, SF9BW125, 4/5CR
2026-05-03 11:22:20 18.5°C 31.9375% 12 μg/m³ 13 μg/m³ 3.27V v255 No position 36700 ttn.v3 - -117 -15 868.1MHz, SF9BW125, 4/5CR
2026-05-03 11:06:30 18.1875°C 31.875% 5 μg/m³ 5 μg/m³ 3.27V v255 No position 36699 ttn.v3 - -109 -7.25 867.9MHz, SF9BW125, 4/5CR
- -114 -13.25 867.9MHz, SF9BW125, 4/5CR
2026-05-03 09:47:24 18.8125°C 33.875% 12 μg/m³ 12 μg/m³ 3.27V v255 No position 36694 ttn.v3 - -124 -9 868.1MHz, SF9BW125, 4/5CR
2026-05-03 09:31:34 17.6875°C 27.75% 12 μg/m³ 12 μg/m³ 3.27V v255 No position 36693 ttn.v3 - -128 -11.5 867.3MHz, SF9BW125, 4/5CR
2026-05-03 08:59:57 16.5625°C 24% 8 μg/m³ 9 μg/m³ 3.27V v255 No position 36691 ttn.v3 - -109 -11.25 867.1MHz, SF9BW125, 4/5CR
- -130 -12.75 867.1MHz, SF9BW125, 4/5CR
2026-05-03 08:28:19 15.5°C 19.5% 12 μg/m³ 12 μg/m³ 3.27V v255 No position 36689 ttn.v3 - -109 -6.25 867.9MHz, SF9BW125, 4/5CR
- -126 -9.25 867.9MHz, SF9BW125, 4/5CR
2026-05-03 08:12:31 14.6875°C 22.0625% 18 μg/m³ 19 μg/m³ 3.27V v255 No position 36688 ttn.v3 - -124 -8.75 868.1MHz, SF9BW125, 4/5CR
2026-05-03 07:56:43 14.1875°C 24.75% 12 μg/m³ 14 μg/m³ 3.27V v255 No position 36687 ttn.v3 - -124 -8.25 867.7MHz, SF9BW125, 4/5CR
- -124 -14.2 867.7MHz, SF9BW125, 4/5CR
2026-05-03 06:37:43 13.5625°C 35.5% 24 μg/m³ 26 μg/m³ 3.28V v255 No position 36682 ttn.v3 - -109 -7 868.1MHz, SF9BW125, 4/5CR
- -126 -11.25 868.1MHz, SF9BW125, 4/5CR
2026-05-03 06:21:55 13.625°C 35.5625% 22 μg/m³ 23 μg/m³ 3.27V v255 No position 36681 ttn.v3 - -125 -8.25 867.1MHz, SF9BW125, 4/5CR
- -109 -12.5 867.1MHz, SF9BW125, 4/5CR
2026-05-03 05:50:19 13.6875°C 35.25% 19 μg/m³ 20 μg/m³ 3.27V v255 No position 36679 ttn.v3 - -107 -7.5 867.9MHz, SF9BW125, 4/5CR
- -124 -7.75 867.9MHz, SF9BW125, 4/5CR
- -117 -15 867.9MHz, SF9BW125, 4/5CR
2026-05-03 05:18:44 13.8125°C 34.1875% 20 μg/m³ 20 μg/m³ 3.27V v255 No position 36677 ttn.v3 - -124 -7.25 867.7MHz, SF9BW125, 4/5CR
- -104 -10.75 867.7MHz, SF9BW125, 4/5CR
- -124 -11.2 867.7MHz, SF9BW125, 4/5CR
2026-05-03 05:02:56 13.8125°C 35.125% 35 μg/m³ 37 μg/m³ 3.27V v255 No position 36676 ttn.v3 - -128 -14.75 868.1MHz, SF9BW125, 4/5CR
2026-05-03 04:15:32 13.625°C 38.1875% 38 μg/m³ 39 μg/m³ 3.27V v255 No position 36673 ttn.v3 - -125 -8.75 867.3MHz, SF9BW125, 4/5CR
2026-05-03 04:01:52 13.5°C 37.5% 39 μg/m³ 40 μg/m³ 3.27V v255 No position 36672 ttn.v3 - -115 -14.75 868.3MHz, SF12BW125, 4/5CR
2026-05-03 03:44:03 13.3125°C 37% 38 μg/m³ 38 μg/m³ 3.27V v255 52.0754 / 5.11353 36671 ttn.v3 3.479km -109 -10.5 867.1MHz, SF9BW125, 4/5CR
1.203km -124 -12.2 867.1MHz, SF9BW125, 4/5CR
2026-05-03 03:28:15 13.4375°C 37.4375% 37 μg/m³ 37 μg/m³ 3.27V v255 52.0754 / 5.11353 36670 ttn.v3 2.656km -122 -7.5 868.1MHz, SF9BW125, 4/5CR
2026-05-03 03:12:27 13.5°C 36.5625% 38 μg/m³ 39 μg/m³ 3.27V v255 52.0754 / 5.11353 36669 ttn.v3 2.656km -123 -6.75 867.9MHz, SF9BW125, 4/5CR
3.479km -107 -12.25 867.9MHz, SF9BW125, 4/5CR

Message count: 200
Node count: 1

Messages per node

Number of messages in list aboveNodes
200

Statistics per gateway

GatewayNumber of messagesNumber of nodesNodes
1101 (1.203km)
1001 (2.656km)
461 (3.479km)
301
141

Filter by dataset